sensor_id;sensor_type;location;lat;lon;timestamp;pressure;altitude;pressure_sealevel;temperature;humidity
3178;BME280;38141;42.666;23.344;2023-03-23T00:00:31;94644.56;;;7.22;100.00
3178;BME280;38141;42.666;23.344;2023-03-23T00:02:58;94651.19;;;7.28;100.00
3178;BME280;38141;42.666;23.344;2023-03-23T00:05:26;94642.44;;;7.08;100.00
3178;BME280;38141;42.666;23.344;2023-03-23T00:07:54;94642.44;;;7.08;100.00
3178;BME280;38141;42.666;23.344;2023-03-23T00:10:22;94635.91;;;7.09;100.00
3178;BME280;38141;42.666;23.344;2023-03-23T00:12:49;94638.84;;;7.01;100.00
3178;BME280;38141;42.666;23.344;2023-03-23T00:15:16;94650.19;;;6.91;100.00
3178;BME280;38141;42.666;23.344;2023-03-23T00:17:43;94647.69;;;6.79;100.00
3178;BME280;38141;42.666;23.344;2023-03-23T00:20:10;94650.75;;;6.77;100.00
3178;BME280;38141;42.666;23.344;2023-03-23T00:22:38;94646.16;;;6.78;100.00
3178;BME280;38141;42.666;23.344;2023-03-23T00:25:06;94649.13;;;6.72;100.00
3178;BME280;38141;42.666;23.344;2023-03-23T00:27:35;94646.56;;;6.57;100.00
3178;BME280;38141;42.666;23.344;2023-03-23T00:30:04;94658.66;;;6.89;100.00
3178;BME280;38141;42.666;23.344;2023-03-23T00:32:31;94662.72;;;6.80;100.00
3178;BME280;38141;42.666;23.344;2023-03-23T00:34:58;94662.47;;;6.65;100.00
3178;BME280;38141;42.666;23.344;2023-03-23T00:37:25;94665.88;;;6.62;100.00
3178;BME280;38141;42.666;23.344;2023-03-23T00:39:52;94666.16;;;6.57;100.00
3178;BME280;38141;42.666;23.344;2023-03-23T00:42:23;94646.44;;;6.50;100.00
3178;BME280;38141;42.666;23.344;2023-03-23T00:44:52;94678.59;;;6.65;100.00
3178;BME280;38141;42.666;23.344;2023-03-23T00:47:25;94672.88;;;6.67;100.00
3178;BME280;38141;42.666;23.344;2023-03-23T00:49:52;94671.88;;;6.56;100.00
3178;BME280;38141;42.666;23.344;2023-03-23T00:52:21;94663.72;;;6.72;100.00
3178;BME280;38141;42.666;23.344;2023-03-23T00:54:48;94664.13;;;6.74;100.00
3178;BME280;38141;42.666;23.344;2023-03-23T00:57:15;94679.97;;;6.79;100.00
3178;BME280;38141;42.666;23.344;2023-03-23T00:59:43;94675.84;;;6.85;100.00
3178;BME280;38141;42.666;23.344;2023-03-23T01:02:11;94657.91;;;6.69;100.00
3178;BME280;38141;42.666;23.344;2023-03-23T01:04:38;94682.41;;;6.87;100.00
3178;BME280;38141;42.666;23.344;2023-03-23T01:07:05;94675.25;;;6.95;100.00
3178;BME280;38141;42.666;23.344;2023-03-23T01:09:33;94686.72;;;6.92;100.00
3178;BME280;38141;42.666;23.344;2023-03-23T01:12:01;94678.94;;;6.87;100.00
3178;BME280;38141;42.666;23.344;2023-03-23T01:14:28;94674.09;;;6.96;100.00
3178;BME280;38141;42.666;23.344;2023-03-23T01:16:54;94675.03;;;6.81;100.00
3178;BME280;38141;42.666;23.344;2023-03-23T01:19:23;94673.66;;;6.90;100.00
3178;BME280;38141;42.666;23.344;2023-03-23T01:21:50;94674.22;;;7.03;100.00
3178;BME280;38141;42.666;23.344;2023-03-23T01:24:17;94650.63;;;6.93;100.00
3178;BME280;38141;42.666;23.344;2023-03-23T01:26:43;94639.88;;;6.93;100.00
3178;BME280;38141;42.666;23.344;2023-03-23T01:29:10;94670.22;;;7.16;100.00
3178;BME280;38141;42.666;23.344;2023-03-23T01:31:37;94659.25;;;7.28;100.00
3178;BME280;38141;42.666;23.344;2023-03-23T01:34:04;94661.09;;;7.50;100.00
3178;BME280;38141;42.666;23.344;2023-03-23T01:36:33;94648.59;;;7.35;100.00
3178;BME280;38141;42.666;23.344;2023-03-23T01:39:03;94648.84;;;7.53;100.00
3178;BME280;38141;42.666;23.344;2023-03-23T01:41:31;94649.91;;;7.45;100.00
3178;BME280;38141;42.666;23.344;2023-03-23T01:44:01;94644.88;;;7.43;100.00
3178;BME280;38141;42.666;23.344;2023-03-23T01:46:30;94655.50;;;7.36;100.00
3178;BME280;38141;42.666;23.344;2023-03-23T01:49:03;94653.00;;;7.47;100.00
3178;BME280;38141;42.666;23.344;2023-03-23T01:51:34;94642.84;;;7.63;100.00
3178;BME280;38141;42.666;23.344;2023-03-23T01:54:04;94614.06;;;7.41;100.00
3178;BME280;38141;42.666;23.344;2023-03-23T01:56:37;94642.97;;;7.44;100.00
3178;BME280;38141;42.666;23.344;2023-03-23T01:59:06;94642.00;;;7.33;100.00
3178;BME280;38141;42.666;23.344;2023-03-23T02:01:34;94639.28;;;7.29;100.00
3178;BME280;38141;42.666;23.344;2023-03-23T02:04:04;94639.31;;;7.33;100.00
3178;BME280;38141;42.666;23.344;2023-03-23T02:06:33;94640.47;;;7.58;100.00
3178;BME280;38141;42.666;23.344;2023-03-23T02:09:00;94615.75;;;7.49;100.00
3178;BME280;38141;42.666;23.344;2023-03-23T02:11:28;94642.06;;;7.63;100.00
3178;BME280;38141;42.666;23.344;2023-03-23T02:13:54;94641.09;;;7.48;100.00
3178;BME280;38141;42.666;23.344;2023-03-23T02:16:29;94633.41;;;7.50;100.00
3178;BME280;38141;42.666;23.344;2023-03-23T02:19:16;94635.72;;;7.48;100.00
3178;BME280;38141;42.666;23.344;2023-03-23T02:22:03;94630.72;;;7.50;100.00
3178;BME280;38141;42.666;23.344;2023-03-23T02:24:56;94631.41;;;7.43;100.00
3178;BME280;38141;42.666;23.344;2023-03-23T02:27:40;94633.78;;;7.48;100.00
3178;BME280;38141;42.666;23.344;2023-03-23T02:30:29;94641.97;;;7.55;100.00
3178;BME280;38141;42.666;23.344;2023-03-23T02:33:35;94641.31;;;7.36;100.00
3178;BME280;38141;42.666;23.344;2023-03-23T02:36:10;94640.00;;;7.26;100.00
3178;BME280;38141;42.666;23.344;2023-03-23T02:38:44;94608.13;;;7.02;100.00
3178;BME280;38141;42.666;23.344;2023-03-23T02:41:18;94569.22;;;6.69;100.00
3178;BME280;38141;42.666;23.344;2023-03-23T02:43:47;94640.00;;;7.26;100.00
3178;BME280;38141;42.666;23.344;2023-03-23T02:46:15;94647.97;;;7.19;100.00
3178;BME280;38141;42.666;23.344;2023-03-23T02:48:45;94654.59;;;7.25;100.00
3178;BME280;38141;42.666;23.344;2023-03-23T02:51:15;94641.72;;;6.89;100.00
3178;BME280;38141;42.666;23.344;2023-03-23T02:53:43;94662.91;;;6.90;100.00
3178;BME280;38141;42.666;23.344;2023-03-23T02:56:11;94633.72;;;6.69;100.00
3178;BME280;38141;42.666;23.344;2023-03-23T02:58:40;94674.72;;;6.86;100.00
3178;BME280;38141;42.666;23.344;2023-03-23T03:04:01;94671.31;;;6.66;100.00
3178;BME280;38141;42.666;23.344;2023-03-23T03:06:34;94684.56;;;6.36;100.00
3178;BME280;38141;42.666;23.344;2023-03-23T03:09:07;94692.50;;;6.29;100.00
3178;BME280;38141;42.666;23.344;2023-03-23T03:11:42;94677.38;;;6.02;100.00
3178;BME280;38141;42.666;23.344;2023-03-23T03:14:18;94692.66;;;6.17;100.00
3178;BME280;38141;42.666;23.344;2023-03-23T03:16:52;94697.53;;;6.31;100.00
3178;BME280;38141;42.666;23.344;2023-03-23T03:19:24;94702.13;;;6.30;100.00
3178;BME280;38141;42.666;23.344;2023-03-23T03:21:54;94699.88;;;6.13;100.00
3178;BME280;38141;42.666;23.344;2023-03-23T03:24:24;94697.53;;;6.11;100.00
3178;BME280;38141;42.666;23.344;2023-03-23T03:26:54;94695.69;;;6.35;100.00
3178;BME280;38141;42.666;23.344;2023-03-23T03:29:26;94705.66;;;6.34;100.00
3178;BME280;38141;42.666;23.344;2023-03-23T03:31:56;94693.13;;;6.42;100.00
3178;BME280;38141;42.666;23.344;2023-03-23T03:34:26;94700.88;;;6.66;100.00
3178;BME280;38141;42.666;23.344;2023-03-23T03:36:56;94700.72;;;6.59;100.00
3178;BME280;38141;42.666;23.344;2023-03-23T03:39:26;94690.34;;;6.57;100.00
3178;BME280;38141;42.666;23.344;2023-03-23T03:41:53;94694.22;;;6.60;100.00
3178;BME280;38141;42.666;23.344;2023-03-23T03:44:21;94689.22;;;6.58;100.00
3178;BME280;38141;42.666;23.344;2023-03-23T03:46:48;94680.22;;;6.51;100.00
3178;BME280;38141;42.666;23.344;2023-03-23T03:49:15;94707.88;;;6.70;100.00
3178;BME280;38141;42.666;23.344;2023-03-23T03:51:44;94695.84;;;6.64;100.00
3178;BME280;38141;42.666;23.344;2023-03-23T03:54:10;94697.44;;;6.46;100.00
3178;BME280;38141;42.666;23.344;2023-03-23T03:56:37;94684.41;;;6.48;100.00
3178;BME280;38141;42.666;23.344;2023-03-23T03:59:06;94693.88;;;6.61;100.00
3178;BME280;38141;42.666;23.344;2023-03-23T04:01:33;94676.97;;;6.61;100.00
3178;BME280;38141;42.666;23.344;2023-03-23T04:04:00;94691.16;;;6.81;100.00
3178;BME280;38141;42.666;23.344;2023-03-23T04:06:27;94694.94;;;6.57;100.00
3178;BME280;38141;42.666;23.344;2023-03-23T04:08:55;94680.06;;;6.40;100.00
3178;BME280;38141;42.666;23.344;2023-03-23T04:11:24;94684.97;;;6.57;100.00
3178;BME280;38141;42.666;23.344;2023-03-23T04:13:51;94673.28;;;6.50;100.00
3178;BME280;38141;42.666;23.344;2023-03-23T04:16:18;94690.56;;;6.49;100.00
3178;BME280;38141;42.666;23.344;2023-03-23T04:18:46;94678.66;;;6.50;100.00
3178;BME280;38141;42.666;23.344;2023-03-23T04:21:13;94685.59;;;6.51;100.00
3178;BME280;38141;42.666;23.344;2023-03-23T04:23:41;94694.22;;;6.60;100.00
3178;BME280;38141;42.666;23.344;2023-03-23T04:26:09;94694.25;;;6.83;100.00
3178;BME280;38141;42.666;23.344;2023-03-23T04:28:38;94672.53;;;6.49;100.00
3178;BME280;38141;42.666;23.344;2023-03-23T04:31:06;94695.56;;;6.69;100.00
3178;BME280;38141;42.666;23.344;2023-03-23T04:33:34;94680.94;;;6.67;100.00
3178;BME280;38141;42.666;23.344;2023-03-23T04:36:03;94697.06;;;6.90;100.00
3178;BME280;38141;42.666;23.344;2023-03-23T04:38:32;94690.38;;;6.80;100.00
3178;BME280;38141;42.666;23.344;2023-03-23T04:41:00;94701.53;;;6.82;100.00
3178;BME280;38141;42.666;23.344;2023-03-23T04:43:28;94700.09;;;6.88;100.00
3178;BME280;38141;42.666;23.344;2023-03-23T04:45:56;94702.69;;;6.81;100.00
3178;BME280;38141;42.666;23.344;2023-03-23T04:48:23;94702.75;;;7.07;100.00
3178;BME280;38141;42.666;23.344;2023-03-23T04:50:50;94700.09;;;6.88;100.00
3178;BME280;38141;42.666;23.344;2023-03-23T04:53:17;94706.84;;;7.01;100.00
3178;BME280;38141;42.666;23.344;2023-03-23T04:55:44;94710.63;;;6.97;100.00
3178;BME280;38141;42.666;23.344;2023-03-23T04:58:13;94706.66;;;7.13;100.00
3178;BME280;38141;42.666;23.344;2023-03-23T05:00:41;94712.25;;;7.01;100.00
3178;BME280;38141;42.666;23.344;2023-03-23T05:03:09;94715.81;;;7.09;100.00
3178;BME280;38141;42.666;23.344;2023-03-23T05:05:36;94710.38;;;7.05;100.00
3178;BME280;38141;42.666;23.344;2023-03-23T05:08:03;94718.88;;;7.07;100.00
3178;BME280;38141;42.666;23.344;2023-03-23T05:10:30;94717.34;;;7.33;100.00
3178;BME280;38141;42.666;23.344;2023-03-23T05:13:02;94715.66;;;6.98;100.00
3178;BME280;38141;42.666;23.344;2023-03-23T05:15:29;94706.91;;;7.05;100.00
3178;BME280;38141;42.666;23.344;2023-03-23T05:17:57;94715.66;;;6.98;100.00
3178;BME280;38141;42.666;23.344;2023-03-23T05:20:24;94720.84;;;7.10;100.00
3178;BME280;38141;42.666;23.344;2023-03-23T05:22:51;94723.66;;;7.40;100.00
3178;BME280;38141;42.666;23.344;2023-03-23T05:25:18;94729.34;;;7.35;100.00
3178;BME280;38141;42.666;23.344;2023-03-23T05:27:46;94725.13;;;7.64;100.00
3178;BME280;38141;42.666;23.344;2023-03-23T05:30:18;94741.53;;;7.29;100.00
3178;BME280;38141;42.666;23.344;2023-03-23T05:32:45;94738.06;;;7.06;100.00
3178;BME280;38141;42.666;23.344;2023-03-23T05:35:17;94726.50;;;7.28;100.00
3178;BME280;38141;42.666;23.344;2023-03-23T05:37:47;94748.50;;;7.56;100.00
3178;BME280;38141;42.666;23.344;2023-03-23T05:40:15;94744.53;;;7.50;100.00
3178;BME280;38141;42.666;23.344;2023-03-23T05:42:41;94743.19;;;7.64;100.00
3178;BME280;38141;42.666;23.344;2023-03-23T05:45:10;94730.94;;;7.66;100.00
3178;BME280;38141;42.666;23.344;2023-03-23T05:47:38;94724.06;;;7.69;100.00
3178;BME280;38141;42.666;23.344;2023-03-23T05:50:06;94753.56;;;7.88;100.00
3178;BME280;38141;42.666;23.344;2023-03-23T05:52:36;94747.19;;;7.99;100.00
3178;BME280;38141;42.666;23.344;2023-03-23T05:55:04;94742.88;;;8.21;100.00
3178;BME280;38141;42.666;23.344;2023-03-23T05:57:31;94745.78;;;8.35;100.00
3178;BME280;38141;42.666;23.344;2023-03-23T05:59:58;94748.56;;;8.42;100.00
3178;BME280;38141;42.666;23.344;2023-03-23T06:02:29;94721.75;;;8.57;100.00
3178;BME280;38141;42.666;23.344;2023-03-23T06:04:56;94756.84;;;8.93;100.00
3178;BME280;38141;42.666;23.344;2023-03-23T06:07:23;94753.41;;;9.37;100.00
3178;BME280;38141;42.666;23.344;2023-03-23T06:09:52;94759.34;;;10.08;100.00
3178;BME280;38141;42.666;23.344;2023-03-23T06:12:19;94746.13;;;9.96;100.00
3178;BME280;38141;42.666;23.344;2023-03-23T06:14:46;94765.31;;;10.35;100.00
3178;BME280;38141;42.666;23.344;2023-03-23T06:17:14;94669.72;;;10.02;100.00
3178;BME280;38141;42.666;23.344;2023-03-23T06:19:41;94620.44;;;10.37;100.00
3178;BME280;38141;42.666;23.344;2023-03-23T06:22:08;94682.22;;;10.24;100.00
3178;BME280;38141;42.666;23.344;2023-03-23T06:24:40;94710.53;;;10.59;100.00
3178;BME280;38141;42.666;23.344;2023-03-23T06:27:08;94770.66;;;11.28;100.00
3178;BME280;38141;42.666;23.344;2023-03-23T06:29:35;94697.13;;;11.15;100.00
3178;BME280;38141;42.666;23.344;2023-03-23T06:32:03;94717.66;;;11.45;100.00
3178;BME280;38141;42.666;23.344;2023-03-23T06:34:31;94711.06;;;11.92;100.00
3178;BME280;38141;42.666;23.344;2023-03-23T06:37:00;94765.38;;;12.97;100.00
3178;BME280;38141;42.666;23.344;2023-03-23T06:39:27;94736.50;;;13.34;100.00
3178;BME280;38141;42.666;23.344;2023-03-23T06:41:56;94765.28;;;14.24;97.18
3178;BME280;38141;42.666;23.344;2023-03-23T06:44:25;94749.97;;;14.75;87.10
3178;BME280;38141;42.666;23.344;2023-03-23T06:46:52;94761.88;;;15.45;78.60
3178;BME280;38141;42.666;23.344;2023-03-23T06:49:19;94776.53;;;15.58;76.17
3178;BME280;38141;42.666;23.344;2023-03-23T06:51:46;94776.97;;;16.30;71.25
3178;BME280;38141;42.666;23.344;2023-03-23T06:54:12;94781.03;;;16.65;66.99
3178;BME280;38141;42.666;23.344;2023-03-23T06:56:41;94783.06;;;17.01;62.87
3178;BME280;38141;42.666;23.344;2023-03-23T06:59:08;94781.47;;;15.67;67.90
3178;BME280;38141;42.666;23.344;2023-03-23T07:04:38;94772.31;;;16.04;65.35
3178;BME280;38141;42.666;23.344;2023-03-23T07:07:06;94792.47;;;16.57;61.70
3178;BME280;38141;42.666;23.344;2023-03-23T07:09:34;94724.44;;;16.66;61.07
3178;BME280;38141;42.666;23.344;2023-03-23T07:12:03;94710.91;;;16.16;62.00
3178;BME280;38141;42.666;23.344;2023-03-23T07:14:30;94786.91;;;17.78;57.74
3178;BME280;38141;42.666;23.344;2023-03-23T07:16:57;94722.34;;;18.26;54.04
3178;BME280;38141;42.666;23.344;2023-03-23T07:19:24;94730.19;;;17.79;53.76
3178;BME280;38141;42.666;23.344;2023-03-23T07:21:52;94735.97;;;18.75;52.77
3178;BME280;38141;42.666;23.344;2023-03-23T07:26:50;94785.59;;;17.67;53.98
3178;BME280;38141;42.666;23.344;2023-03-23T07:51:24;94800.66;;;21.25;46.03
3178;BME280;38141;42.666;23.344;2023-03-23T07:54:28;94793.72;;;21.73;45.12
3178;BME280;38141;42.666;23.344;2023-03-23T07:56:55;94741.47;;;20.64;46.36
3178;BME280;38141;42.666;23.344;2023-03-23T07:59:24;94746.94;;;20.42;46.21
3178;BME280;38141;42.666;23.344;2023-03-23T08:01:51;94774.56;;;19.63;47.71
3178;BME280;38141;42.666;23.344;2023-03-23T08:04:18;94769.72;;;20.05;47.79
3178;BME280;38141;42.666;23.344;2023-03-23T08:06:47;94803.22;;;21.19;46.67
3178;BME280;38141;42.666;23.344;2023-03-23T08:09:14;94811.53;;;22.61;44.01
3178;BME280;38141;42.666;23.344;2023-03-23T08:11:41;94777.25;;;22.89;41.32
3178;BME280;38141;42.666;23.344;2023-03-23T08:14:09;94801.84;;;22.56;41.49
3178;BME280;38141;42.666;23.344;2023-03-23T08:16:36;94780.75;;;22.81;42.02
3178;BME280;38141;42.666;23.344;2023-03-23T08:19:03;94784.59;;;22.74;42.26
3178;BME280;38141;42.666;23.344;2023-03-23T08:21:31;94811.28;;;23.14;41.17
3178;BME280;38141;42.666;23.344;2023-03-23T08:23:59;94802.53;;;23.15;41.68
3178;BME280;38141;42.666;23.344;2023-03-23T08:26:26;94812.28;;;22.52;40.92
3178;BME280;38141;42.666;23.344;2023-03-23T08:28:53;94793.16;;;23.49;39.55
3178;BME280;38141;42.666;23.344;2023-03-23T08:31:20;94808.81;;;22.88;39.96
3178;BME280;38141;42.666;23.344;2023-03-23T08:33:47;94803.22;;;24.21;38.60
3178;BME280;38141;42.666;23.344;2023-03-23T08:36:13;94808.81;;;25.70;36.50
3178;BME280;38141;42.666;23.344;2023-03-23T08:38:40;94799.50;;;24.33;36.74
3178;BME280;38141;42.666;23.344;2023-03-23T08:41:10;94788.66;;;25.31;36.21
3178;BME280;38141;42.666;23.344;2023-03-23T08:43:37;94798.81;;;26.91;33.48
3178;BME280;38141;42.666;23.344;2023-03-23T08:46:05;94796.97;;;28.32;31.48
3178;BME280;38141;42.666;23.344;2023-03-23T08:48:34;94796.28;;;29.44;29.81
3178;BME280;38141;42.666;23.344;2023-03-23T08:51:02;94803.91;;;31.05;26.94
3178;BME280;38141;42.666;23.344;2023-03-23T08:53:29;94789.84;;;31.16;26.62
3178;BME280;38141;42.666;23.344;2023-03-23T08:55:56;94798.31;;;33.74;24.04
3178;BME280;38141;42.666;23.344;2023-03-23T08:58:30;94794.50;;;32.61;24.55
3178;BME280;38141;42.666;23.344;2023-03-23T09:00:57;94798.00;;;31.14;24.50
3178;BME280;38141;42.666;23.344;2023-03-23T09:03:24;94778.41;;;31.72;24.30
3178;BME280;38141;42.666;23.344;2023-03-23T09:05:51;94778.34;;;27.35;28.53
3178;BME280;38141;42.666;23.344;2023-03-23T09:08:19;94800.19;;;27.22;28.84
3178;BME280;38141;42.666;23.344;2023-03-23T09:10:46;94803.59;;;26.91;29.98
3178;BME280;38141;42.666;23.344;2023-03-23T09:13:14;94792.63;;;28.25;29.21
3178;BME280;38141;42.666;23.344;2023-03-23T09:15:42;94789.44;;;27.81;28.82
3178;BME280;38141;42.666;23.344;2023-03-23T09:18:09;94794.34;;;24.08;32.07
3178;BME280;38141;42.666;23.344;2023-03-23T09:20:36;94793.69;;;24.79;31.88
3178;BME280;38141;42.666;23.344;2023-03-23T09:23:03;94785.88;;;26.68;30.43
3178;BME280;38141;42.666;23.344;2023-03-23T09:25:30;94801.47;;;28.66;27.96
3178;BME280;38141;42.666;23.344;2023-03-23T09:27:58;94798.19;;;30.48;25.76
3178;BME280;38141;42.666;23.344;2023-03-23T09:30:27;94787.66;;;28.83;27.57
3178;BME280;38141;42.666;23.344;2023-03-23T09:32:56;94790.56;;;29.16;27.70
3178;BME280;38141;42.666;23.344;2023-03-23T09:35:27;94783.13;;;25.16;32.09
3178;BME280;38141;42.666;23.344;2023-03-23T09:37:55;94783.47;;;25.77;31.72
3178;BME280;38141;42.666;23.344;2023-03-23T09:40:25;94788.94;;;25.56;31.39
3178;BME280;38141;42.666;23.344;2023-03-23T09:43:10;94775.44;;;29.29;27.39
3178;BME280;38141;42.666;23.344;2023-03-23T09:45:48;94773.41;;;30.96;25.99
3178;BME280;38141;42.666;23.344;2023-03-23T09:48:36;94778.84;;;29.83;26.85
3178;BME280;38141;42.666;23.344;2023-03-23T09:51:11;94779.03;;;29.46;27.10
3178;BME280;38141;42.666;23.344;2023-03-23T09:53:45;94774.50;;;28.84;27.90
3178;BME280;38141;42.666;23.344;2023-03-23T09:56:15;94771.03;;;27.12;29.12
3178;BME280;38141;42.666;23.344;2023-03-23T09:58:46;94774.44;;;26.11;30.16
3178;BME280;38141;42.666;23.344;2023-03-23T10:01:20;94748.00;;;25.81;30.11
3178;BME280;38141;42.666;23.344;2023-03-23T10:03:52;94770.97;;;24.75;31.39
3178;BME280;38141;42.666;23.344;2023-03-23T10:06:22;94766.75;;;25.56;30.88
3178;BME280;38141;42.666;23.344;2023-03-23T10:08:50;94767.34;;;25.60;30.61
3178;BME280;38141;42.666;23.344;2023-03-23T10:11:31;94759.47;;;23.78;33.11
3178;BME280;38141;42.666;23.344;2023-03-23T10:14:22;94763.09;;;23.24;34.03
3178;BME280;38141;42.666;23.344;2023-03-23T10:16:56;94755.44;;;22.55;35.38
3178;BME280;38141;42.666;23.344;2023-03-23T10:19:32;94761.75;;;23.10;34.92
3178;BME280;38141;42.666;23.344;2023-03-23T10:22:03;94728.31;;;21.03;36.67
3178;BME280;38141;42.666;23.344;2023-03-23T10:24:35;94749.91;;;23.19;34.67
3178;BME280;38141;42.666;23.344;2023-03-23T10:27:11;94738.69;;;23.91;33.63
3178;BME280;38141;42.666;23.344;2023-03-23T10:29:42;94755.41;;;25.01;32.24
3178;BME280;38141;42.666;23.344;2023-03-23T10:32:14;94750.50;;;25.35;31.40
3178;BME280;38141;42.666;23.344;2023-03-23T10:34:45;94740.84;;;25.74;31.23
3178;BME280;38141;42.666;23.344;2023-03-23T10:37:18;94744.72;;;23.81;33.94
3178;BME280;38141;42.666;23.344;2023-03-23T10:39:49;94746.13;;;22.89;34.91
3178;BME280;38141;42.666;23.344;2023-03-23T10:42:24;94730.38;;;22.13;36.01
3178;BME280;38141;42.666;23.344;2023-03-23T10:44:52;94745.91;;;22.47;35.78
3178;BME280;38141;42.666;23.344;2023-03-23T10:47:19;94732.41;;;22.40;35.57
3178;BME280;38141;42.666;23.344;2023-03-23T10:49:49;94743.31;;;22.43;35.51
3178;BME280;38141;42.666;23.344;2023-03-23T10:52:26;94742.25;;;22.50;35.30
3178;BME280;38141;42.666;23.344;2023-03-23T10:54:57;94724.66;;;23.02;34.36
3178;BME280;38141;42.666;23.344;2023-03-23T10:57:25;94713.88;;;22.22;35.32
3178;BME280;38141;42.666;23.344;2023-03-23T10:59:59;94738.56;;;22.35;35.94
3178;BME280;38141;42.666;23.344;2023-03-23T11:02:27;94725.59;;;21.95;36.07
3178;BME280;38141;42.666;23.344;2023-03-23T11:05:01;94741.84;;;21.71;36.71
3178;BME280;38141;42.666;23.344;2023-03-23T11:07:31;94734.66;;;21.65;37.20
3178;BME280;38141;42.666;23.344;2023-03-23T11:10:07;94739.78;;;20.79;37.72
3178;BME280;38141;42.666;23.344;2023-03-23T11:12:35;94711.09;;;21.33;36.80
3178;BME280;38141;42.666;23.344;2023-03-23T11:15:23;94729.53;;;23.16;34.82
3178;BME280;38141;42.666;23.344;2023-03-23T11:18:02;94720.38;;;22.74;34.61
3178;BME280;38141;42.666;23.344;2023-03-23T11:20:36;94718.38;;;23.01;35.02
3178;BME280;38141;42.666;23.344;2023-03-23T11:23:13;94724.88;;;21.73;36.64
3178;BME280;38141;42.666;23.344;2023-03-23T11:25:56;94709.28;;;22.19;36.39
3178;BME280;38141;42.666;23.344;2023-03-23T11:28:28;94703.03;;;23.00;35.02
3178;BME280;38141;42.666;23.344;2023-03-23T11:30:57;94702.28;;;22.82;35.47
3178;BME280;38141;42.666;23.344;2023-03-23T11:33:25;94702.06;;;21.72;36.21
3178;BME280;38141;42.666;23.344;2023-03-23T11:35:54;94695.44;;;21.21;37.65
3178;BME280;38141;42.666;23.344;2023-03-23T11:38:22;94710.38;;;20.55;37.88
3178;BME280;38141;42.666;23.344;2023-03-23T11:40:53;94691.66;;;19.93;38.82
3178;BME280;38141;42.666;23.344;2023-03-23T11:43:22;94691.78;;;21.24;37.68
3178;BME280;38141;42.666;23.344;2023-03-23T11:45:57;94693.56;;;21.49;37.17
3178;BME280;38141;42.666;23.344;2023-03-23T11:48:28;94688.44;;;21.29;37.50
3178;BME280;38141;42.666;23.344;2023-03-23T11:51:00;94687.00;;;20.72;38.70
3178;BME280;38141;42.666;23.344;2023-03-23T11:53:36;94686.34;;;20.90;38.61
3178;BME280;38141;42.666;23.344;2023-03-23T11:56:11;94683.59;;;20.90;38.42
3178;BME280;38141;42.666;23.344;2023-03-23T11:58:39;94679.06;;;21.17;38.26
3178;BME280;38141;42.666;23.344;2023-03-23T12:01:13;94665.25;;;20.43;38.62
3178;BME280;38141;42.666;23.344;2023-03-23T12:04:01;94675.13;;;20.53;39.88
3178;BME280;38141;42.666;23.344;2023-03-23T12:06:38;94662.75;;;20.02;39.87
3178;BME280;38141;42.666;23.344;2023-03-23T12:09:19;94672.34;;;21.18;38.12
3178;BME280;38141;42.666;23.344;2023-03-23T12:11:57;94664.44;;;21.29;38.79
3178;BME280;38141;42.666;23.344;2023-03-23T12:14:37;94668.81;;;21.58;37.72
3178;BME280;38141;42.666;23.344;2023-03-23T12:17:17;94666.16;;;21.85;37.30
3178;BME280;38141;42.666;23.344;2023-03-23T12:19:51;94657.19;;;21.14;37.68
3178;BME280;38141;42.666;23.344;2023-03-23T12:22:34;94656.50;;;20.79;38.30
3178;BME280;38141;42.666;23.344;2023-03-23T12:25:16;94675.81;;;19.97;39.46
3178;BME280;38141;42.666;23.344;2023-03-23T12:27:49;94668.28;;;19.76;39.76
3178;BME280;38141;42.666;23.344;2023-03-23T12:30:26;94671.66;;;20.27;39.49
3178;BME280;38141;42.666;23.344;2023-03-23T12:33:07;94653.94;;;19.47;40.47
3178;BME280;38141;42.666;23.344;2023-03-23T12:35:45;94659.31;;;19.50;39.97
3178;BME280;38141;42.666;23.344;2023-03-23T12:38:31;94656.38;;;20.26;39.35
3178;BME280;38141;42.666;23.344;2023-03-23T12:41:10;94646.84;;;20.18;39.95
3178;BME280;38141;42.666;23.344;2023-03-23T12:43:46;94652.31;;;20.31;39.94
3178;BME280;38141;42.666;23.344;2023-03-23T12:46:34;94641.41;;;20.06;39.76
3178;BME280;38141;42.666;23.344;2023-03-23T12:49:07;94653.59;;;19.20;41.45
3178;BME280;38141;42.666;23.344;2023-03-23T12:51:40;94642.91;;;19.85;40.37
3178;BME280;38141;42.666;23.344;2023-03-23T12:54:14;94638.25;;;19.94;40.65
3178;BME280;38141;42.666;23.344;2023-03-23T12:56:49;94606.84;;;20.30;40.02
3178;BME280;38141;42.666;23.344;2023-03-23T12:59:23;94639.56;;;20.03;40.41
3178;BME280;38141;42.666;23.344;2023-03-23T13:01:55;94639.13;;;19.91;40.31
3178;BME280;38141;42.666;23.344;2023-03-23T13:04:27;94633.03;;;20.09;40.23
3178;BME280;38141;42.666;23.344;2023-03-23T13:06:58;94637.91;;;20.39;39.82
3178;BME280;38141;42.666;23.344;2023-03-23T13:09:32;94634.19;;;20.55;38.76
3178;BME280;38141;42.666;23.344;2023-03-23T13:12:03;94635.34;;;19.64;40.26
3178;BME280;38141;42.666;23.344;2023-03-23T13:14:44;94583.88;;;19.42;40.83
3178;BME280;38141;42.666;23.344;2023-03-23T13:17:23;94623.84;;;19.31;41.39
3178;BME280;38141;42.666;23.344;2023-03-23T13:20:31;94636.31;;;18.81;42.26
3178;BME280;38141;42.666;23.344;2023-03-23T13:23:04;94629.22;;;19.22;41.36
3178;BME280;38141;42.666;23.344;2023-03-23T13:25:46;94622.97;;;19.08;41.95
3178;BME280;38141;42.666;23.344;2023-03-23T13:28:15;94620.78;;;19.16;41.88
3178;BME280;38141;42.666;23.344;2023-03-23T13:30:53;94626.47;;;19.22;42.44
3178;BME280;38141;42.666;23.344;2023-03-23T13:33:20;94615.16;;;18.82;42.90
3178;BME280;38141;42.666;23.344;2023-03-23T13:35:49;94618.28;;;18.55;43.53
3178;BME280;38141;42.666;23.344;2023-03-23T13:38:21;94629.31;;;18.80;42.81
3178;BME280;38141;42.666;23.344;2023-03-23T13:40:51;94612.53;;;18.78;43.06
3178;BME280;38141;42.666;23.344;2023-03-23T13:43:28;94596.63;;;18.44;43.02
3178;BME280;38141;42.666;23.344;2023-03-23T13:46:07;94615.72;;;19.02;42.41
3178;BME280;38141;42.666;23.344;2023-03-23T13:48:42;94611.34;;;18.92;43.07